Time;durP1;ratioP1;P1;durP2;ratioP2;P2;SDS_P1;SDS_P2;PMS_P1;PMS_P2;Temp;Humidity;BMP_temperature;BMP_pressure;BME280_temperature;BME280_humidity;BME280_pressure;Samples;Min_cycle;Max_cycle;Signal;HPM_P1;HPM_P2
2022/04/12 00:00:34;;;;;;;8.30;7.20;;;;;;;9.40;nan;101033.75;5050576;28;20029;-54
2022/04/12 00:02:59;;;;;;;8.93;7.50;;;;;;;9.43;nan;101037.19;5051592;28;20033;-51
2022/04/12 00:05:25;;;;;;;9.23;7.38;;;;;;;9.13;nan;100984.56;5051813;28;20033;-53
2022/04/12 00:07:50;;;;;;;8.70;6.93;;;;;;;9.42;nan;101034.63;5051930;28;20061;-56
2022/04/12 00:10:16;;;;;;;7.93;6.78;;;;;;;9.14;nan;100997.63;5051683;28;20062;-55
2022/04/12 00:12:41;;;;;;;7.65;6.43;;;;;;;9.04;nan;100986.50;5051638;28;20120;-54
2022/04/12 00:15:09;;;;;;;8.18;6.50;;;;;;;9.39;nan;101037.31;5051826;28;20370;-54
2022/04/12 00:20:19;;;;;;;8.38;6.90;;;;;;;9.34;nan;101047.91;5050771;28;20044;-52
2022/04/12 00:22:45;;;;;;;8.90;6.65;;;;;;;9.16;nan;101016.84;5050286;28;20041;-53
2022/04/12 00:25:11;;;;;;;8.88;7.10;;;;;;;8.99;nan;100990.97;5050229;28;20029;-53
2022/04/12 00:27:38;;;;;;;7.40;6.32;;;;;;;8.91;nan;100982.41;5051497;28;20033;-52
2022/04/12 00:30:05;;;;;;;8.55;6.90;;;;;;;8.84;nan;100983.44;5051857;28;20033;-54
2022/04/12 00:32:31;;;;;;;7.30;6.38;;;;;;;8.79;nan;100968.72;5052040;28;20504;-53
2022/04/12 00:34:56;;;;;;;8.98;7.03;;;;;;;8.79;nan;100994.94;5054060;28;20037;-54
2022/04/12 00:37:21;;;;;;;8.02;6.45;;;;;;;9.08;nan;101044.19;5055110;28;20040;-53
2022/04/12 00:39:47;;;;;;;6.93;5.88;;;;;;;9.12;nan;101045.84;5054937;28;20033;-53
2022/04/12 00:42:12;;;;;;;8.60;6.75;;;;;;;9.08;nan;101047.66;5055001;28;20041;-53
2022/04/12 00:44:37;;;;;;;7.30;6.38;;;;;;;8.83;nan;100997.50;5054366;28;20512;-53
2022/04/12 00:47:03;;;;;;;7.63;6.20;;;;;;;9.09;nan;101033.66;5055067;28;20128;-53
2022/04/12 00:49:28;;;;;;;6.60;5.85;;;;;;;9.08;nan;101044.19;5054832;28;20128;-54
2022/04/12 00:51:54;;;;;;;8.65;6.60;;;;;;;8.97;nan;101021.66;5054679;28;20071;-54
2022/04/12 00:54:21;;;;;;;9.38;6.03;;;;;;;8.74;nan;100989.81;5053289;28;20029;-56
2022/04/12 00:56:48;;;;;;;7.28;6.57;;;;;;;8.87;nan;101020.13;5054590;28;20040;-54
2022/04/12 00:59:13;;;;;;;8.80;6.47;;;;;;;8.88;nan;101026.25;5036839;28;20120;-54
2022/04/12 01:01:39;;;;;;;8.23;6.93;;;;;;;8.56;nan;100968.38;5053675;28;20450;-52
2022/04/12 01:04:04;;;;;;;8.23;6.70;;;;;;;8.84;nan;101035.09;5053454;28;20087;-50
2022/04/12 01:06:30;;;;;;;9.15;6.68;;;;;;;8.84;nan;101024.59;5054588;28;20060;-55
2022/04/12 01:08:55;;;;;;;8.05;6.72;;;;;;;8.75;nan;101012.56;5054490;28;20033;-52
2022/04/12 01:11:21;;;;;;;7.68;6.40;;;;;;;8.44;nan;100969.50;5053066;28;20036;-54
2022/04/12 01:13:47;;;;;;;12.95;7.28;;;;;;;8.52;nan;100992.97;5052940;28;20032;-52
2022/04/12 01:16:12;;;;;;;9.10;6.78;;;;;;;8.66;nan;101006.63;5054016;28;20044;-50
2022/04/12 01:18:38;;;;;;;7.38;6.40;;;;;;;8.39;nan;100969.59;5054383;28;20033;-52
2022/04/12 01:21:03;;;;;;;7.63;6.82;;;;;;;8.57;nan;101010.31;5053084;28;20402;-56
2022/04/12 01:23:41;;;;;;;7.85;6.53;;;;;;;8.49;nan;101020.97;5052839;28;20036;-51
2022/04/12 01:26:07;;;;;;;9.23;7.45;;;;;;;8.18;nan;100977.88;5052858;28;20033;-55
2022/04/12 01:28:32;;;;;;;8.07;7.30;;;;;;;8.26;nan;100989.06;5054083;28;20121;-53
2022/04/12 01:30:58;;;;;;;7.53;6.78;;;;;;;8.30;nan;101008.25;5053087;28;20496;-50
2022/04/12 01:33:23;;;;;;;7.25;6.20;;;;;;;7.87;nan;100950.56;5052886;28;20028;-50
2022/04/12 01:35:48;;;;;;;8.95;6.45;;;;;;;7.89;nan;100954.88;5054001;28;20037;-55
2022/04/12 01:38:14;;;;;;;8.60;7.00;;;;;;;7.75;nan;100935.94;5053998;28;20037;-53
2022/04/12 01:40:39;;;;;;;10.20;7.45;;;;;;;8.09;nan;100991.16;5035893;28;20063;-54
2022/04/12 01:43:04;;;;;;;7.70;6.90;;;;;;;8.03;nan;100986.03;5053370;28;20045;-53
2022/04/12 01:45:30;;;;;;;9.05;6.95;;;;;;;8.01;nan;101000.94;5053315;28;20481;-53
2022/04/12 01:47:56;;;;;;;8.07;6.75;;;;;;;7.87;nan;100972.41;5053612;28;20076;-51
2022/04/12 01:50:21;;;;;;;7.63;6.78;;;;;;;7.81;nan;100980.38;5053852;28;20049;-54
2022/04/12 01:52:47;;;;;;;8.95;6.43;;;;;;;7.75;nan;100979.59;5035824;28;20047;-58
2022/04/12 01:55:12;;;;;;;8.30;7.38;;;;;;;7.73;nan;100987.50;5053306;28;20096;-52
2022/04/12 01:57:38;;;;;;;9.30;7.70;;;;;;;7.72;nan;100987.53;5052224;28;20435;-52
2022/04/12 02:00:05;;;;;;;9.63;7.40;;;;;;;7.27;nan;100932.44;5053604;28;20529;-51
2022/04/12 02:02:30;;;;;;;11.27;7.72;;;;;;;7.44;nan;100952.25;5053620;28;20040;-54
2022/04/12 02:04:56;;;;;;;8.02;7.20;;;;;;;7.57;nan;100966.84;5053214;28;20041;-53
2022/04/12 02:07:21;;;;;;;8.50;7.20;;;;;;;7.50;nan;100966.09;5053890;28;20037;-51
2022/04/12 02:09:47;;;;;;;7.38;6.68;;;;;;;7.51;nan;100977.44;5053057;28;20094;-53
2022/04/12 02:12:12;;;;;;;10.45;7.32;;;;;;;7.16;nan;100925.66;5053182;28;20128;-53
2022/04/12 02:14:37;;;;;;;8.40;7.53;;;;;;;7.38;nan;100980.25;5053312;28;20441;-51
2022/04/12 02:17:03;;;;;;;8.23;7.43;;;;;;;7.32;nan;100969.03;5052994;28;20505;-53
2022/04/12 02:19:28;;;;;;;11.95;7.75;;;;;;;7.08;nan;100935.41;5053247;28;20036;-55
2022/04/12 02:21:53;;;;;;;7.30;6.57;;;;;;;7.24;nan;100971.78;5053036;28;20045;-51
2022/04/12 02:24:19;;;;;;;8.85;7.10;;;;;;;6.94;nan;100917.34;5051938;28;20049;-51
2022/04/12 02:26:45;;;;;;;8.85;7.70;;;;;;;7.18;nan;100955.31;5035347;28;20029;-55
2022/04/12 02:29:13;;;;;;;8.10;7.00;;;;;;;7.04;nan;100923.25;5051986;28;20037;-54
2022/04/12 02:31:38;;;;;;;9.45;7.85;;;;;;;6.87;nan;100892.13;5053155;28;20045;-54
2022/04/12 02:34:04;;;;;;;8.45;6.80;;;;;;;6.94;nan;100901.63;5052993;28;20033;-51
2022/04/12 02:36:29;;;;;;;11.23;7.30;;;;;;;7.12;nan;100939.72;5052865;28;20068;-51
2022/04/12 02:38:54;;;;;;;10.88;7.43;;;;;;;6.97;nan;100905.94;5051504;28;20115;-51
2022/04/12 02:41:20;;;;;;;8.85;7.32;;;;;;;7.11;nan;100925.75;5052855;28;20428;-54
2022/04/12 02:43:45;;;;;;;8.35;7.13;;;;;;;7.20;nan;100943.06;5052782;28;20041;-53
2022/04/12 02:46:10;;;;;;;9.60;6.75;;;;;;;7.18;nan;100943.06;5052634;28;20025;-55
2022/04/12 02:48:36;;;;;;;7.53;6.43;;;;;;;7.16;nan;100939.63;5052849;28;20045;-53
2022/04/12 02:51:01;;;;;;;9.05;6.95;;;;;;;7.13;nan;100938.81;5052883;28;20124;-55
2022/04/12 02:53:26;;;;;;;9.15;6.80;;;;;;;7.15;nan;100926.56;5051285;28;20033;-54
2022/04/12 02:55:52;;;;;;;11.95;7.18;;;;;;;7.14;nan;100920.47;5050973;28;20033;-54
2022/04/12 02:58:17;;;;;;;8.60;7.00;;;;;;;6.73;nan;100852.25;5052911;28;20037;-52
2022/04/12 03:00:42;;;;;;;7.70;6.72;;;;;;;7.10;nan;100946.72;5052581;28;20509;-51
2022/04/12 03:03:08;;;;;;;10.05;6.72;;;;;;;6.91;nan;100887.72;5052426;28;20072;-56
2022/04/12 03:05:34;;;;;;;8.70;7.05;;;;;;;7.12;nan;100919.63;5052233;28;20048;-54
2022/04/12 03:07:59;;;;;;;8.13;6.78;;;;;;;7.10;nan;100915.31;5051056;28;20106;-52
2022/04/12 03:10:25;;;;;;;6.97;6.25;;;;;;;7.09;nan;100914.44;5052154;28;20481;-55
2022/04/12 03:12:50;;;;;;;7.47;6.07;;;;;;;7.06;nan;100913.66;5052103;28;20120;-54
2022/04/12 03:15:16;;;;;;;10.25;6.18;;;;;;;7.06;nan;100911.03;5052511;28;20182;-52
2022/04/12 03:17:41;;;;;;;8.80;6.57;;;;;;;7.13;nan;100929.22;5052300;28;20466;-55
2022/04/12 03:20:07;;;;;;;7.53;5.78;;;;;;;7.15;nan;100931.81;5052169;28;20039;-50
2022/04/12 03:22:32;;;;;;;8.70;5.93;;;;;;;7.12;nan;100937.09;5052215;28;20075;-53
2022/04/12 03:24:57;;;;;;;7.38;6.47;;;;;;;6.70;nan;100855.78;5050659;28;20068;-53
2022/04/12 03:27:23;;;;;;;6.50;5.60;;;;;;;6.79;nan;100860.88;5052297;28;20037;-55
2022/04/12 03:29:48;;;;;;;9.18;6.22;;;;;;;7.22;nan;100920.34;5052322;28;20037;-55
2022/04/12 03:32:13;;;;;;;8.23;5.43;;;;;;;6.86;nan;100847.69;5052196;28;20040;-53
2022/04/12 03:34:40;;;;;;;7.10;6.00;;;;;;;6.93;nan;100855.41;5052329;28;20033;-53
2022/04/12 03:37:06;;;;;;;6.53;5.47;;;;;;;7.22;nan;100897.63;5051883;28;20082;-57
2022/04/12 03:39:31;;;;;;;7.30;5.10;;;;;;;7.04;nan;100855.22;5051901;28;20037;-53
2022/04/12 03:41:56;;;;;;;6.35;5.45;;;;;;;7.12;nan;100848.09;5050983;28;20041;-53
2022/04/12 03:44:22;;;;;;;7.32;5.43;;;;;;;7.53;nan;100913.63;5051924;28;20481;-52
2022/04/12 03:46:47;;;;;;;6.10;4.95;;;;;;;7.33;nan;100876.47;5051920;28;20048;-51
2022/04/12 03:49:13;;;;;;;7.20;4.88;;;;;;;7.71;nan;100925.53;5051550;28;20064;-52
2022/04/12 03:51:38;;;;;;;5.95;5.35;;;;;;;7.72;nan;100922.03;5050514;28;20043;-53
2022/04/12 03:54:04;;;;;;;7.35;5.15;;;;;;;7.74;nan;100949.06;5051540;28;20405;-54
2022/04/12 03:56:29;;;;;;;5.10;4.60;;;;;;;7.41;nan;100885.09;5052040;28;20474;-52
2022/04/12 03:58:57;;;;;;;6.65;5.07;;;;;;;7.73;nan;100942.09;5051876;28;20052;-51
2022/04/12 04:01:22;;;;;;;6.03;5.03;;;;;;;7.34;nan;100896.56;5050541;28;20033;-51
2022/04/12 04:03:48;;;;;;;6.28;5.10;;;;;;;7.34;nan;100909.66;5051558;28;20256;-52
2022/04/12 04:06:13;;;;;;;7.93;5.55;;;;;;;7.35;nan;100906.97;5051671;28;20028;-54
2022/04/12 04:08:38;;;;;;;7.75;6.13;;;;;;;7.59;nan;100951.97;5054035;28;20044;-53
2022/04/12 04:11:04;;;;;;;7.50;5.75;;;;;;;7.20;nan;100894.19;5055737;28;20041;-53
2022/04/12 04:13:36;;;;;;;6.10;5.25;;;;;;;7.36;nan;100932.28;5055783;28;20478;-56
2022/04/12 04:16:01;;;;;;;5.75;5.25;;;;;;;7.40;nan;100933.09;5055483;28;20187;-51
2022/04/12 04:18:27;;;;;;;8.48;6.10;;;;;;;7.31;nan;100909.69;5037969;28;20521;-51
2022/04/12 04:20:52;;;;;;;6.03;5.05;;;;;;;7.11;nan;100869.94;5055407;28;20040;-55
2022/04/12 04:23:17;;;;;;;6.50;5.85;;;;;;;7.40;nan;100912.16;5055260;28;20374;-55
2022/04/12 04:25:43;;;;;;;6.43;5.22;;;;;;;7.04;nan;100842.13;5055575;28;20489;-53
2022/04/12 04:28:11;;;;;;;7.72;6.38;;;;;;;7.38;nan;100902.59;5055503;28;20522;-52
2022/04/12 04:30:38;;;;;;;7.60;5.75;;;;;;;7.04;nan;100843.00;5055566;28;20409;-51
2022/04/12 04:33:04;;;;;;;7.25;5.97;;;;;;;6.92;nan;100832.72;5055083;28;20481;-51
2022/04/12 04:35:30;;;;;;;8.38;6.03;;;;;;;7.22;nan;100895.03;5055101;28;20116;-55
2022/04/12 04:37:55;;;;;;;6.00;5.38;;;;;;;7.17;nan;100899.47;5055053;28;20025;-50
2022/04/12 04:40:21;;;;;;;6.78;6.18;;;;;;;7.00;nan;100875.34;5055402;28;20029;-55
2022/04/12 04:42:47;;;;;;;6.85;5.90;;;;;;;7.10;nan;100892.63;5055254;28;20041;-54
2022/04/12 04:45:14;;;;;;;7.30;6.22;;;;;;;7.03;nan;100877.91;5055064;28;20049;-52
2022/04/12 04:47:50;;;;;;;6.93;5.70;;;;;;;6.95;nan;100863.22;5054780;28;20095;-53
2022/04/12 04:50:17;;;;;;;9.65;5.93;;;;;;;6.71;nan;100820.03;5054820;28;20025;-54
2022/04/12 04:52:43;;;;;;;6.80;5.63;;;;;;;7.11;nan;100896.09;5054799;28;20063;-56
2022/04/12 04:55:08;;;;;;;9.95;6.13;;;;;;;6.76;nan;100826.94;5053694;28;20037;-54
2022/04/12 04:57:38;;;;;;;9.50;6.47;;;;;;;6.69;nan;100803.50;5053528;28;20029;-55
2022/04/12 05:00:05;;;;;;;6.53;5.82;;;;;;;7.19;nan;100897.69;5053725;28;20033;-54
2022/04/12 05:02:32;;;;;;;7.18;5.90;;;;;;;6.95;nan;100847.50;5054659;28;20216;-51
2022/04/12 05:04:57;;;;;;;8.15;6.15;;;;;;;6.47;nan;100774.25;5053098;28;20029;-53
2022/04/12 05:07:26;;;;;;;7.22;6.15;;;;;;;7.10;nan;100896.97;5054748;28;20439;-50
2022/04/12 05:09:52;;;;;;;6.25;5.65;;;;;;;7.08;nan;100901.38;5054349;28;20494;-54
2022/04/12 05:12:17;;;;;;;7.15;5.40;;;;;;;7.04;nan;100897.09;5054626;28;20106;-55
2022/04/12 05:14:43;;;;;;;7.60;6.03;;;;;;;7.03;nan;100904.09;5054264;28;20041;-54
2022/04/12 05:17:08;;;;;;;7.53;6.25;;;;;;;6.25;nan;100779.84;5054418;28;20037;-55
2022/04/12 05:19:33;;;;;;;6.97;6.28;;;;;;;6.98;nan;100895.44;5053061;28;20033;-53
2022/04/12 05:21:59;;;;;;;8.88;6.28;;;;;;;6.68;nan;100848.88;5053065;28;20072;-56
2022/04/12 05:24:24;;;;;;;10.35;5.45;;;;;;;7.04;nan;100910.16;5052733;28;20041;-56
2022/04/12 05:26:50;;;;;;;8.82;5.90;;;;;;;6.99;nan;100914.63;5054084;28;20115;-56
2022/04/12 05:29:16;;;;;;;8.02;6.35;;;;;;;6.95;nan;100912.94;5053993;28;20029;-53
2022/04/12 05:31:41;;;;;;;7.70;5.50;;;;;;;6.66;nan;100877.66;5052835;28;20493;-55
2022/04/12 05:34:07;;;;;;;9.95;6.72;;;;;;;6.95;nan;100919.03;5052228;28;20041;-54
2022/04/12 05:36:32;;;;;;;8.10;6.00;;;;;;;7.00;nan;100930.31;5052439;28;20440;-53
2022/04/12 05:38:57;;;;;;;7.50;6.25;;;;;;;6.66;nan;100851.50;5053774;28;20025;-50
2022/04/12 05:41:22;;;;;;;9.52;6.85;;;;;;;6.81;nan;100873.91;5053976;28;20148;-52
2022/04/12 05:43:48;;;;;;;8.45;6.53;;;;;;;7.20;nan;100909.91;5052937;28;20115;-52
2022/04/12 05:46:13;;;;;;;7.78;6.30;;;;;;;6.96;nan;100838.78;5053482;28;20412;-53
2022/04/12 05:48:39;;;;;;;8.77;6.90;;;;;;;7.44;nan;100907.72;5052108;28;20472;-54
2022/04/12 05:51:04;;;;;;;10.07;6.35;;;;;;;7.26;nan;100861.81;5053475;28;20040;-53
2022/04/12 05:53:29;;;;;;;9.50;6.57;;;;;;;7.63;nan;100915.22;5053503;28;20068;-52
2022/04/12 05:55:55;;;;;;;9.73;6.70;;;;;;;7.34;nan;100852.91;5053435;28;20025;-49
2022/04/12 05:58:20;;;;;;;9.27;6.63;;;;;;;7.91;nan;100923.38;5052441;28;20033;-55
2022/04/12 06:00:45;;;;;;;8.68;6.25;;;;;;;7.77;nan;100857.28;5053563;28;20041;-54
2022/04/12 06:03:11;;;;;;;8.65;6.28;;;;;;;8.27;nan;100906.03;5052428;28;20539;-53
2022/04/12 06:05:36;;;;;;;8.30;6.30;;;;;;;8.32;nan;100898.94;5053220;28;20442;-51
2022/04/12 06:08:03;;;;;;;11.55;6.43;;;;;;;8.53;nan;100911.56;5052299;28;20597;-53
2022/04/12 06:10:28;;;;;;;8.13;6.25;;;;;;;8.38;nan;100862.94;5053166;28;20064;-50
2022/04/12 06:12:54;;;;;;;8.77;6.50;;;;;;;8.79;nan;100921.47;5053259;28;20033;-53
2022/04/12 06:15:19;;;;;;;9.30;6.15;;;;;;;8.59;nan;100856.34;5053042;28;20037;-55
2022/04/12 06:17:45;;;;;;;6.90;6.20;;;;;;;9.14;nan;100926.72;5053240;28;20048;-54
2022/04/12 06:20:15;;;;;;;7.00;5.85;;;;;;;8.92;nan;100880.91;5053291;28;20055;-52
2022/04/12 06:22:41;;;;;;;7.60;6.00;;;;;;;9.33;nan;100924.50;5053289;28;20087;-53
2022/04/12 06:25:08;;;;;;;6.82;6.13;;;;;;;9.24;nan;100865.19;5051727;28;20040;-55
2022/04/12 06:27:38;;;;;;;8.55;6.60;;;;;;;9.14;nan;100828.69;5051770;28;20389;-52
2022/04/12 06:30:06;;;;;;;6.87;5.57;;;;;;;9.88;nan;100939.66;5051449;28;20029;-52
2022/04/12 06:32:32;;;;;;;9.85;6.47;;;;;;;9.63;nan;100876.41;5051465;28;20043;-54
2022/04/12 06:34:57;;;;;;;8.73;6.22;;;;;;;9.79;nan;100882.06;5052988;28;20028;-51
2022/04/12 06:37:26;;;;;;;8.13;5.93;;;;;;;10.18;nan;100945.84;5051512;28;20466;-50
2022/04/12 06:39:52;;;;;;;7.63;6.50;;;;;;;10.29;nan;100946.38;5051713;28;20029;-53
2022/04/12 06:42:18;;;;;;;8.05;6.32;;;;;;;10.11;nan;100890.75;5051345;28;20032;-51
2022/04/12 06:44:43;;;;;;;7.32;5.97;;;;;;;10.54;nan;100919.28;5052354;28;20469;-51
2022/04/12 06:47:09;;;;;;;9.10;6.30;;;;;;;10.53;nan;100878.09;5052591;28;20440;-53
2022/04/12 06:49:34;;;;;;;8.45;6.32;;;;;;;11.06;nan;100926.38;5052494;28;20097;-51
2022/04/12 06:52:02;;;;;;;7.35;6.43;;;;;;;11.17;nan;100933.94;5052436;28;20041;-50
2022/04/12 06:54:27;;;;;;;8.48;5.95;;;;;;;11.10;nan;100880.59;5052569;28;20059;-54
2022/04/12 06:56:52;;;;;;;7.40;6.45;;;;;;;11.56;nan;100924.66;5052533;28;20162;-51
2022/04/12 06:59:18;;;;;;;7.28;5.70;;;;;;;11.88;nan;100914.78;5052591;28;20474;-48
2022/04/12 07:01:43;;;;;;;7.43;6.63;;;;;;;12.28;nan;100941.41;5051138;28;20033;-53
2022/04/12 07:04:09;;;;;;;8.98;6.30;;;;;;;12.51;nan;100916.78;5052264;28;20052;-50
2022/04/12 07:06:35;;;;;;;6.22;5.63;;;;;;;13.05;nan;100925.13;5052442;28;20045;-50
2022/04/12 07:09:00;;;;;;;11.45;6.50;;;;;;;12.96;nan;100876.16;5050844;28;20044;-56
2022/04/12 07:11:26;;;;;;;7.07;5.88;;;;;;;12.75;nan;100807.53;5052144;28;20060;-57
2022/04/12 07:13:51;;;;;;;9.25;6.75;;;;;;;13.13;nan;100875.50;5052214;28;20397;-55
2022/04/12 07:16:16;;;;;;;8.52;6.72;;;;;;;13.61;nan;100935.97;5052396;28;20049;-53
2022/04/12 07:18:41;;;;;;;6.72;6.00;;;;;;;13.58;nan;100880.56;5052087;28;20036;-56
2022/04/12 07:21:07;;;;;;;9.07;5.88;;;;;;;14.00;nan;100944.84;5052126;28;20037;-50
2022/04/12 07:23:36;;;;;;;7.38;5.90;;;;;;;14.24;nan;100948.16;5051000;28;20385;-55
2022/04/12 07:26:02;;;;;;;8.82;6.25;;;;;;;14.50;nan;100939.03;5052084;28;20112;-52
2022/04/12 07:28:28;;;;;;;7.88;6.53;;;;;;;14.56;nan;100899.03;5050243;28;20032;-57
2022/04/12 07:30:53;;;;;;;6.00;5.50;;;;;;;14.80;nan;100913.72;5050496;28;20469;-54
2022/04/12 07:33:19;;;;;;;9.82;5.85;;;;;;;15.39;nan;100934.63;5065977;28;20106;-53
2022/04/12 07:35:44;;;;;;;8.23;6.47;;;;;;;15.46;nan;100933.38;5049576;28;20041;-55
2022/04/12 07:38:10;;;;;;;8.05;6.15;;;;;;;15.16;nan;100922.53;5050449;28;20037;-54
2022/04/12 07:40:35;;;;;;;6.80;5.63;;;;;;;14.96;nan;100904.09;5050466;28;20168;-53
2022/04/12 07:43:01;;;;;;;7.75;6.05;;;;;;;14.76;nan;100880.38;5048330;28;20055;-55
2022/04/12 07:45:26;;;;;;;6.82;5.97;;;;;;;15.11;nan;100878.63;5049929;28;20053;-56
2022/04/12 07:47:51;;;;;;;7.07;6.32;;;;;;;15.44;nan;100860.97;5050295;28;20029;-56
2022/04/12 07:50:17;;;;;;;8.43;6.45;;;;;;;15.96;nan;100928.16;5032226;28;20033;-55
2022/04/12 07:52:42;;;;;;;10.15;6.25;;;;;;;16.43;nan;100928.22;5050154;28;20056;-54
2022/04/12 07:55:08;;;;;;;6.88;6.05;;;;;;;16.50;nan;100920.75;5050626;28;20041;-55
2022/04/12 07:57:34;;;;;;;6.88;5.47;;;;;;;16.75;nan;100934.44;5050266;28;20052;-53
2022/04/12 07:59:59;;;;;;;6.15;5.55;;;;;;;17.14;nan;100925.97;5048936;28;20068;-53
2022/04/12 08:02:24;;;;;;;7.65;5.68;;;;;;;17.09;nan;100926.25;5065844;28;20044;-52
2022/04/12 08:04:49;;;;;;;8.73;6.38;;;;;;;17.22;nan;100935.22;5050128;28;20044;-56
2022/04/12 08:07:15;;;;;;;6.80;5.90;;;;;;;17.10;nan;100938.63;5050168;28;20060;-57
2022/04/12 08:09:40;;;;;;;8.10;5.97;;;;;;;16.48;nan;100888.97;5050345;28;20044;-56
2022/04/12 08:12:06;;;;;;;7.50;6.47;;;;;;;16.38;nan;100929.41;5050140;28;20037;-56
2022/04/12 08:14:31;;;;;;;9.80;6.15;;;;;;;15.83;nan;100897.88;5050242;28;20120;-56
2022/04/12 08:16:57;;;;;;;14.75;7.50;;;;;;;16.03;nan;100939.28;5050162;28;20044;-56
2022/04/12 08:19:22;;;;;;;6.47;5.78;;;;;;;16.26;nan;100957.47;5048999;28;20425;-53
2022/04/12 08:21:48;;;;;;;7.32;5.65;;;;;;;16.20;nan;100884.31;5032407;28;20068;-56
2022/04/12 08:24:13;;;;;;;8.27;6.18;;;;;;;17.10;nan;100951.06;5049631;28;20045;-56
2022/04/12 08:26:39;;;;;;;7.20;6.07;;;;;;;16.77;nan;100956.47;5049723;28;20251;-52
2022/04/12 08:29:04;;;;;;;11.32;6.00;;;;;;;16.61;nan;100895.34;5048310;28;20029;-57
2022/04/12 08:31:30;;;;;;;9.02;6.32;;;;;;;17.21;nan;100954.81;5049971;28;21066;-56
2022/04/12 08:33:55;;;;;;;11.40;6.10;;;;;;;17.76;nan;100948.91;5049679;28;20041;-56
2022/04/12 08:36:22;;;;;;;7.80;5.80;;;;;;;18.14;nan;100944.75;5049843;28;20090;-56
2022/04/12 08:38:49;;;;;;;8.05;6.65;;;;;;;18.43;nan;100885.16;5049696;28;20116;-57
2022/04/12 08:41:15;;;;;;;5.93;5.43;;;;;;;19.10;nan;100953.69;5048570;28;20041;-57
2022/04/12 08:43:41;;;;;;;7.10;5.68;;;;;;;19.54;nan;100939.22;5048268;28;20029;-55
2022/04/12 08:46:07;;;;;;;8.20;5.60;;;;;;;19.82;nan;100933.69;5048298;28;20067;-56
2022/04/12 08:48:34;;;;;;;6.43;5.80;;;;;;;20.66;nan;100936.63;5049454;28;20053;-55
2022/04/12 08:51:01;;;;;;;6.50;5.57;;;;;;;20.62;nan;100874.47;5049729;28;20401;-54
2022/04/12 08:53:28;;;;;;;11.75;5.72;;;;;;;20.37;nan;100882.59;5049969;28;20079;-56
2022/04/12 08:55:54;;;;;;;6.53;5.90;;;;;;;20.56;nan;100915.03;5053272;28;20147;-57
2022/04/12 08:58:19;;;;;;;6.65;5.88;;;;;;;20.82;nan;100913.13;5052860;28;20048;-57
2022/04/12 09:00:45;;;;;;;6.28;5.65;;;;;;;20.74;nan;100862.03;5035269;28;20037;-56
2022/04/12 09:03:14;;;;;;;6.95;5.32;;;;;;;21.22;nan;100901.19;5053048;28;20039;-55
2022/04/12 09:05:40;;;;;;;7.50;5.78;;;;;;;21.35;nan;100884.19;5053124;28;20044;-57
2022/04/12 09:08:24;;;;;;;7.15;6.03;;;;;;;21.50;nan;100875.84;5051734;28;20385;-57
2022/04/12 09:11:02;;;;;;;8.45;6.25;;;;;;;21.88;nan;100896.16;5052760;28;20155;-57
2022/04/12 09:13:28;;;;;;;7.13;5.35;;;;;;;21.52;nan;100844.44;5052832;28;20029;-56
2022/04/12 09:15:54;;;;;;;5.88;5.38;;;;;;;21.81;nan;100885.03;5035044;28;20463;-57
2022/04/12 09:18:35;;;;;;;7.55;5.38;;;;;;;22.16;nan;100887.63;5052705;28;20370;-53
2022/04/12 09:21:14;;;;;;;5.97;5.38;;;;;;;22.44;nan;100887.16;5052740;28;20044;-56
2022/04/12 09:23:50;;;;;;;5.85;4.85;;;;;;;22.47;nan;100883.34;5051598;28;20033;-56
2022/04/12 09:26:21;;;;;;;6.47;5.45;;;;;;;22.51;nan;100879.44;5053062;28;20033;-57
2022/04/12 09:28:47;;;;;;;5.97;5.35;;;;;;;22.48;nan;100848.34;5052420;28;20481;-58
2022/04/12 09:31:14;;;;;;;6.57;5.70;;;;;;;22.68;nan;100889.69;5052731;28;20036;-57
2022/04/12 09:33:40;;;;;;;6.43;5.15;;;;;;;22.78;nan;100874.53;5052049;28;20499;-56
2022/04/12 09:36:06;;;;;;;6.47;5.10;;;;;;;23.21;nan;100890.59;5051712;28;20037;-55
2022/04/12 09:38:33;;;;;;;6.03;4.90;;;;;;;23.05;nan;100895.56;5051466;28;20037;-56
2022/04/12 09:41:11;;;;;;;6.05;5.32;;;;;;;23.19;nan;100877.31;5051529;28;20079;-57
2022/04/12 09:43:41;;;;;;;6.88;4.90;;;;;;;23.16;nan;100872.19;5051951;28;20025;-57
2022/04/12 09:46:07;;;;;;;8.18;5.10;;;;;;;22.83;nan;100850.84;5050851;28;20048;-57
2022/04/12 09:48:35;;;;;;;6.72;5.13;;;;;;;22.38;nan;100874.22;5052024;28;20053;-58
2022/04/12 09:51:00;;;;;;;5.25;4.68;;;;;;;22.26;nan;100835.00;5052307;28;20552;-58
2022/04/12 09:53:39;;;;;;;6.05;5.43;;;;;;;23.12;nan;100875.25;5052279;28;20078;-58
2022/04/12 09:56:24;;;;;;;5.43;4.90;;;;;;;23.68;nan;100886.56;5052125;28;20032;-57
2022/04/12 09:58:52;;;;;;;5.95;5.07;;;;;;;23.80;nan;100875.63;5050670;28;20037;-58
2022/04/12 10:01:18;;;;;;;5.40;4.90;;;;;;;23.50;nan;100864.81;5051960;28;20472;-57
2022/04/12 10:03:46;;;;;;;8.50;4.95;;;;;;;23.81;nan;100860.34;5050460;28;20033;-58
2022/04/12 10:06:13;;;;;;;6.00;4.72;;;;;;;24.23;nan;100856.59;5051275;28;20037;-58
2022/04/12 10:08:39;;;;;;;7.53;5.05;;;;;;;;;;5051855;28;20037;-58
2022/04/12 10:11:05;;;;;;;5.43;4.57;;;;;;;;;;5051908;28;20043;-58
2022/04/12 10:13:31;;;;;;;7.72;4.85;;;;;;;23.60;nan;100800.41;5051292;28;20044;-59
2022/04/12 10:15:57;;;;;;;5.43;4.53;;;;;;;23.27;nan;100790.69;5050379;28;20540;-59
2022/04/12 10:18:23;;;;;;;5.15;4.38;;;;;;;23.57;nan;100830.22;5050710;28;20077;-58
2022/04/12 10:20:48;;;;;;;5.25;4.75;;;;;;;23.02;nan;100801.84;5050514;28;20418;-58
2022/04/12 10:23:20;;;;;;;5.97;5.28;;;;;;;22.40;nan;100762.31;5050882;28;20045;-58
2022/04/12 10:25:48;;;;;;;7.70;5.60;;;;;;;21.83;nan;100824.16;5050362;28;20151;-59
2022/04/12 10:28:14;;;;;;;7.32;5.07;;;;;;;21.83;nan;100829.50;5051578;28;20028;-58
2022/04/12 10:30:39;;;;;;;6.10;5.50;;;;;;;21.43;nan;100815.69;5051662;28;20417;-58
2022/04/12 10:33:07;;;;;;;7.68;5.63;;;;;;;21.08;nan;100831.78;5048975;28;20072;-58
2022/04/12 10:35:42;;;;;;;5.43;4.93;;;;;;;20.85;nan;100837.13;5050212;28;20060;-59
2022/04/12 10:38:08;;;;;;;7.82;5.45;;;;;;;20.51;nan;100836.13;5051487;28;20059;-57
2022/04/12 10:40:34;;;;;;;5.95;5.32;;;;;;;20.40;nan;100836.88;5049749;28;20151;-59
2022/04/12 10:43:02;;;;;;;7.85;5.03;;;;;;;19.98;nan;100800.75;5051490;28;20477;-58
2022/04/12 10:45:32;;;;;;;6.60;5.38;;;;;;;19.71;nan;100772.47;5051192;28;20120;-59
2022/04/12 10:47:59;;;;;;;8.07;5.20;;;;;;;20.18;nan;100828.69;5051197;28;20033;-59
2022/04/12 10:50:24;;;;;;;7.97;4.70;;;;;;;20.03;nan;100763.84;5051355;28;20040;-59
2022/04/12 10:52:50;;;;;;;7.43;5.05;;;;;;;20.41;nan;100805.66;5050945;28;20431;-58
2022/04/12 10:55:25;;;;;;;6.60;5.03;;;;;;;20.15;nan;100791.50;5051001;28;20067;-58
2022/04/12 10:57:52;;;;;;;6.43;4.72;;;;;;;19.75;nan;100736.56;5051281;28;20039;-60
2022/04/12 11:00:22;;;;;;;17.85;4.80;;;;;;;19.87;nan;100746.38;5049905;28;20037;-59
2022/04/12 11:02:55;;;;;;;5.00;4.43;;;;;;;20.37;nan;100822.91;5049500;28;20043;-59
2022/04/12 11:05:32;;;;;;;6.07;4.22;;;;;;;20.79;nan;100830.41;5050243;28;20037;-58
2022/04/12 11:07:57;;;;;;;7.20;4.45;;;;;;;21.17;nan;100811.50;5049884;28;20449;-59
2022/04/12 11:10:23;;;;;;;8.85;5.22;;;;;;;21.21;nan;100816.50;5031720;28;20029;-58
2022/04/12 11:12:49;;;;;;;7.38;5.10;;;;;;;20.49;nan;100742.63;5050755;28;20128;-59
2022/04/12 11:15:28;;;;;;;6.88;4.47;;;;;;;20.26;nan;100740.00;5032603;28;20524;-58
2022/04/12 11:18:11;;;;;;;7.25;5.50;;;;;;;20.50;nan;100799.63;5048579;28;20067;-58
2022/04/12 11:20:39;;;;;;;8.27;5.45;;;;;;;20.33;nan;100743.91;5050816;28;20029;-58
2022/04/12 11:23:10;;;;;;;7.53;5.18;;;;;;;20.58;nan;100747.28;5050665;28;20043;-58
2022/04/12 11:25:44;;;;;;;6.13;4.80;;;;;;;20.70;nan;100742.84;5050466;28;20500;-58
2022/04/12 11:28:12;;;;;;;10.00;5.55;;;;;;;21.54;nan;100756.78;5050529;28;20100;-58
2022/04/12 11:30:39;;;;;;;10.45;6.07;;;;;;;22.85;nan;100788.00;5049252;28;20033;-57
2022/04/12 11:33:04;;;;;;;8.48;5.72;;;;;;;23.31;nan;100760.78;5050388;28;20539;-59
2022/04/12 11:35:30;;;;;;;8.40;5.25;;;;;;;24.39;nan;100794.22;5050414;28;20119;-58
2022/04/12 11:37:56;;;;;;;5.47;4.40;;;;;;;25.08;nan;100749.19;5050254;28;20029;-59
2022/04/12 11:40:25;;;;;;;8.13;5.07;;;;;;;25.99;nan;100781.66;5050233;28;20029;-59
2022/04/12 11:42:50;;;;;;;8.40;5.00;;;;;;;26.13;nan;100812.69;5049796;28;20048;-58
2022/04/12 11:45:15;;;;;;;5.68;4.68;;;;;;;26.65;nan;100827.31;5050537;28;20045;-60